sensor_id;sensor_type;location;lat;lon;timestamp;P1;durP1;ratioP1;P2;durP2;ratioP2
68579;SDS011;55555;52.136;5.424;2022-10-13T00:00:46;24.42;;;12.77;;
68579;SDS011;55555;52.136;5.424;2022-10-13T00:03:14;26.08;;;12.77;;
68579;SDS011;55555;52.136;5.424;2022-10-13T00:05:43;26.85;;;12.82;;
68579;SDS011;55555;52.136;5.424;2022-10-13T00:08:14;29.45;;;13.10;;
68579;SDS011;55555;52.136;5.424;2022-10-13T00:10:45;24.27;;;12.30;;
68579;SDS011;55555;52.136;5.424;2022-10-13T00:13:14;28.58;;;14.35;;
68579;SDS011;55555;52.136;5.424;2022-10-13T00:15:42;23.75;;;12.85;;
68579;SDS011;55555;52.136;5.424;2022-10-13T00:18:11;23.35;;;12.50;;
68579;SDS011;55555;52.136;5.424;2022-10-13T00:20:40;22.02;;;11.73;;
68579;SDS011;55555;52.136;5.424;2022-10-13T00:23:12;34.50;;;13.27;;
68579;SDS011;55555;52.136;5.424;2022-10-13T00:25:41;27.63;;;12.88;;
68579;SDS011;55555;52.136;5.424;2022-10-13T00:28:09;21.85;;;12.30;;
68579;SDS011;55555;52.136;5.424;2022-10-13T00:30:37;26.55;;;12.73;;
68579;SDS011;55555;52.136;5.424;2022-10-13T00:33:05;25.70;;;13.30;;
68579;SDS011;55555;52.136;5.424;2022-10-13T00:35:33;22.53;;;11.37;;
68579;SDS011;55555;52.136;5.424;2022-10-13T00:38:02;24.23;;;13.80;;
68579;SDS011;55555;52.136;5.424;2022-10-13T00:40:29;24.52;;;13.57;;
68579;SDS011;55555;52.136;5.424;2022-10-13T00:42:56;26.23;;;12.88;;
68579;SDS011;55555;52.136;5.424;2022-10-13T00:45:27;26.63;;;13.60;;
68579;SDS011;55555;52.136;5.424;2022-10-13T00:47:55;24.20;;;12.87;;
68579;SDS011;55555;52.136;5.424;2022-10-13T00:50:27;24.30;;;12.45;;
68579;SDS011;55555;52.136;5.424;2022-10-13T00:53:00;23.05;;;13.02;;
68579;SDS011;55555;52.136;5.424;2022-10-13T00:55:29;26.85;;;14.15;;
68579;SDS011;55555;52.136;5.424;2022-10-13T00:57:59;23.50;;;13.52;;
68579;SDS011;55555;52.136;5.424;2022-10-13T01:00:31;25.17;;;12.77;;
68579;SDS011;55555;52.136;5.424;2022-10-13T01:03:00;25.33;;;13.23;;
68579;SDS011;55555;52.136;5.424;2022-10-13T01:05:28;25.80;;;13.18;;
68579;SDS011;55555;52.136;5.424;2022-10-13T01:07:56;25.33;;;13.52;;
68579;SDS011;55555;52.136;5.424;2022-10-13T01:13:37;26.87;;;12.43;;
68579;SDS011;55555;52.136;5.424;2022-10-13T01:16:14;27.25;;;13.55;;
68579;SDS011;55555;52.136;5.424;2022-10-13T01:29:12;23.93;;;11.70;;
68579;SDS011;55555;52.136;5.424;2022-10-13T01:34:43;27.45;;;12.95;;
68579;SDS011;55555;52.136;5.424;2022-10-13T01:37:28;23.00;;;12.68;;
68579;SDS011;55555;52.136;5.424;2022-10-13T01:40:23;28.58;;;12.60;;
68579;SDS011;55555;52.136;5.424;2022-10-13T01:43:14;27.70;;;12.87;;
68579;SDS011;55555;52.136;5.424;2022-10-13T01:45:49;24.85;;;13.25;;
68579;SDS011;55555;52.136;5.424;2022-10-13T01:48:29;23.75;;;14.07;;
68579;SDS011;55555;52.136;5.424;2022-10-13T01:50:58;25.13;;;13.00;;
68579;SDS011;55555;52.136;5.424;2022-10-13T01:53:26;26.55;;;13.90;;
68579;SDS011;55555;52.136;5.424;2022-10-13T01:55:56;22.47;;;12.10;;
68579;SDS011;55555;52.136;5.424;2022-10-13T01:58:26;22.23;;;12.80;;
68579;SDS011;55555;52.136;5.424;2022-10-13T02:01:10;26.77;;;13.63;;
68579;SDS011;55555;52.136;5.424;2022-10-13T02:06:57;29.20;;;13.43;;
68579;SDS011;55555;52.136;5.424;2022-10-13T02:12:33;26.80;;;12.55;;
68579;SDS011;55555;52.136;5.424;2022-10-13T02:15:08;26.85;;;12.88;;
68579;SDS011;55555;52.136;5.424;2022-10-13T02:17:41;26.45;;;13.75;;
68579;SDS011;55555;52.136;5.424;2022-10-13T02:20:09;26.45;;;13.13;;
68579;SDS011;55555;52.136;5.424;2022-10-13T02:22:39;31.13;;;14.13;;
68579;SDS011;55555;52.136;5.424;2022-10-13T02:25:10;23.30;;;12.93;;
68579;SDS011;55555;52.136;5.424;2022-10-13T02:27:37;24.48;;;13.55;;
68579;SDS011;55555;52.136;5.424;2022-10-13T02:30:04;31.48;;;13.57;;
68579;SDS011;55555;52.136;5.424;2022-10-13T02:32:32;23.65;;;12.38;;
68579;SDS011;55555;52.136;5.424;2022-10-13T02:34:59;26.60;;;13.37;;
68579;SDS011;55555;52.136;5.424;2022-10-13T02:37:26;23.00;;;12.02;;
68579;SDS011;55555;52.136;5.424;2022-10-13T02:39:53;28.15;;;13.18;;
68579;SDS011;55555;52.136;5.424;2022-10-13T02:42:20;25.73;;;13.65;;
68579;SDS011;55555;52.136;5.424;2022-10-13T02:44:47;24.50;;;13.27;;
68579;SDS011;55555;52.136;5.424;2022-10-13T02:47:14;26.93;;;12.80;;
68579;SDS011;55555;52.136;5.424;2022-10-13T02:49:41;22.98;;;12.63;;
68579;SDS011;55555;52.136;5.424;2022-10-13T02:52:08;25.00;;;13.18;;
68579;SDS011;55555;52.136;5.424;2022-10-13T02:54:35;21.60;;;12.80;;
68579;SDS011;55555;52.136;5.424;2022-10-13T02:57:02;27.52;;;13.75;;
68579;SDS011;55555;52.136;5.424;2022-10-13T02:59:29;22.27;;;12.93;;
68579;SDS011;55555;52.136;5.424;2022-10-13T03:01:56;26.15;;;13.85;;
68579;SDS011;55555;52.136;5.424;2022-10-13T03:04:22;25.73;;;12.57;;
68579;SDS011;55555;52.136;5.424;2022-10-13T03:06:49;21.55;;;12.73;;
68579;SDS011;55555;52.136;5.424;2022-10-13T03:09:16;28.92;;;13.43;;
68579;SDS011;55555;52.136;5.424;2022-10-13T03:11:43;25.33;;;13.13;;
68579;SDS011;55555;52.136;5.424;2022-10-13T03:14:10;20.92;;;12.80;;
68579;SDS011;55555;52.136;5.424;2022-10-13T03:16:37;23.20;;;12.85;;
68579;SDS011;55555;52.136;5.424;2022-10-13T03:19:04;25.30;;;13.77;;
68579;SDS011;55555;52.136;5.424;2022-10-13T03:21:31;26.27;;;13.35;;
68579;SDS011;55555;52.136;5.424;2022-10-13T03:23:58;21.77;;;11.90;;
68579;SDS011;55555;52.136;5.424;2022-10-13T03:26:25;25.35;;;13.38;;
68579;SDS011;55555;52.136;5.424;2022-10-13T03:28:52;24.45;;;13.20;;
68579;SDS011;55555;52.136;5.424;2022-10-13T03:31:19;26.27;;;13.77;;
68579;SDS011;55555;52.136;5.424;2022-10-13T03:33:45;26.63;;;14.60;;
68579;SDS011;55555;52.136;5.424;2022-10-13T03:36:12;27.93;;;12.40;;
68579;SDS011;55555;52.136;5.424;2022-10-13T03:38:39;27.95;;;14.82;;
68579;SDS011;55555;52.136;5.424;2022-10-13T03:41:07;25.67;;;12.95;;
68579;SDS011;55555;52.136;5.424;2022-10-13T03:43:41;25.05;;;13.45;;
68579;SDS011;55555;52.136;5.424;2022-10-13T03:46:10;24.05;;;13.75;;
68579;SDS011;55555;52.136;5.424;2022-10-13T03:48:39;29.10;;;14.27;;
68579;SDS011;55555;52.136;5.424;2022-10-13T03:51:07;25.23;;;13.32;;
68579;SDS011;55555;52.136;5.424;2022-10-13T03:53:37;23.42;;;13.88;;
68579;SDS011;55555;52.136;5.424;2022-10-13T03:56:05;21.48;;;12.68;;
68579;SDS011;55555;52.136;5.424;2022-10-13T03:58:32;30.40;;;14.60;;
68579;SDS011;55555;52.136;5.424;2022-10-13T04:01:03;30.77;;;15.00;;
68579;SDS011;55555;52.136;5.424;2022-10-13T04:03:32;25.40;;;14.88;;
68579;SDS011;55555;52.136;5.424;2022-10-13T04:06:00;23.42;;;13.45;;
68579;SDS011;55555;52.136;5.424;2022-10-13T04:08:28;27.27;;;13.80;;
68579;SDS011;55555;52.136;5.424;2022-10-13T04:11:00;28.83;;;14.27;;
68579;SDS011;55555;52.136;5.424;2022-10-13T04:13:30;27.87;;;14.07;;
68579;SDS011;55555;52.136;5.424;2022-10-13T04:16:02;25.15;;;13.50;;
68579;SDS011;55555;52.136;5.424;2022-10-13T04:18:30;27.40;;;14.93;;
68579;SDS011;55555;52.136;5.424;2022-10-13T04:20:57;26.92;;;14.10;;
68579;SDS011;55555;52.136;5.424;2022-10-13T04:23:24;27.33;;;15.98;;
68579;SDS011;55555;52.136;5.424;2022-10-13T04:25:51;31.00;;;14.97;;
68579;SDS011;55555;52.136;5.424;2022-10-13T04:28:18;26.90;;;14.68;;
68579;SDS011;55555;52.136;5.424;2022-10-13T04:30:45;28.42;;;15.05;;
68579;SDS011;55555;52.136;5.424;2022-10-13T04:33:14;30.00;;;15.13;;
68579;SDS011;55555;52.136;5.424;2022-10-13T04:35:41;29.65;;;14.10;;
68579;SDS011;55555;52.136;5.424;2022-10-13T04:38:08;30.23;;;14.67;;
68579;SDS011;55555;52.136;5.424;2022-10-13T04:40:35;31.17;;;16.10;;
68579;SDS011;55555;52.136;5.424;2022-10-13T04:43:02;29.45;;;14.77;;
68579;SDS011;55555;52.136;5.424;2022-10-13T04:45:29;30.13;;;14.80;;
68579;SDS011;55555;52.136;5.424;2022-10-13T04:47:56;27.73;;;14.88;;
68579;SDS011;55555;52.136;5.424;2022-10-13T04:50:23;30.27;;;15.20;;
68579;SDS011;55555;52.136;5.424;2022-10-13T04:52:50;33.20;;;15.07;;
68579;SDS011;55555;52.136;5.424;2022-10-13T04:55:17;29.27;;;14.82;;
68579;SDS011;55555;52.136;5.424;2022-10-13T04:57:44;27.05;;;14.35;;
68579;SDS011;55555;52.136;5.424;2022-10-13T05:00:11;27.75;;;14.63;;
68579;SDS011;55555;52.136;5.424;2022-10-13T05:02:38;27.57;;;14.17;;
68579;SDS011;55555;52.136;5.424;2022-10-13T05:05:05;25.77;;;14.65;;
68579;SDS011;55555;52.136;5.424;2022-10-13T05:07:33;29.00;;;14.68;;
68579;SDS011;55555;52.136;5.424;2022-10-13T05:10:00;31.08;;;14.13;;
68579;SDS011;55555;52.136;5.424;2022-10-13T05:12:27;30.13;;;15.05;;
68579;SDS011;55555;52.136;5.424;2022-10-13T05:14:54;25.77;;;14.47;;
68579;SDS011;55555;52.136;5.424;2022-10-13T05:17:22;30.20;;;16.25;;
68579;SDS011;55555;52.136;5.424;2022-10-13T05:19:49;31.30;;;15.40;;
68579;SDS011;55555;52.136;5.424;2022-10-13T05:22:16;29.13;;;16.17;;
68579;SDS011;55555;52.136;5.424;2022-10-13T05:24:43;26.40;;;14.95;;
68579;SDS011;55555;52.136;5.424;2022-10-13T05:27:11;30.73;;;16.30;;
68579;SDS011;55555;52.136;5.424;2022-10-13T05:29:39;33.63;;;16.30;;
68579;SDS011;55555;52.136;5.424;2022-10-13T05:32:06;29.20;;;16.33;;
68579;SDS011;55555;52.136;5.424;2022-10-13T05:34:33;35.10;;;17.02;;
68579;SDS011;55555;52.136;5.424;2022-10-13T05:37:01;42.15;;;17.25;;
68579;SDS011;55555;52.136;5.424;2022-10-13T05:39:27;28.23;;;15.20;;
68579;SDS011;55555;52.136;5.424;2022-10-13T05:41:54;28.13;;;15.98;;
68579;SDS011;55555;52.136;5.424;2022-10-13T05:44:21;30.60;;;15.32;;
68579;SDS011;55555;52.136;5.424;2022-10-13T05:46:49;31.88;;;16.27;;
68579;SDS011;55555;52.136;5.424;2022-10-13T05:49:16;27.85;;;15.05;;
68579;SDS011;55555;52.136;5.424;2022-10-13T05:51:44;32.47;;;16.37;;
68579;SDS011;55555;52.136;5.424;2022-10-13T05:54:23;32.20;;;16.58;;
68579;SDS011;55555;52.136;5.424;2022-10-13T05:56:56;35.13;;;17.77;;
68579;SDS011;55555;52.136;5.424;2022-10-13T05:59:32;35.65;;;16.00;;
68579;SDS011;55555;52.136;5.424;2022-10-13T06:02:04;30.05;;;16.75;;
68579;SDS011;55555;52.136;5.424;2022-10-13T06:04:37;29.70;;;15.70;;
68579;SDS011;55555;52.136;5.424;2022-10-13T06:07:09;37.08;;;16.83;;
68579;SDS011;55555;52.136;5.424;2022-10-13T06:09:37;40.83;;;18.25;;
68579;SDS011;55555;52.136;5.424;2022-10-13T06:12:07;31.27;;;16.35;;
68579;SDS011;55555;52.136;5.424;2022-10-13T06:14:35;36.03;;;18.35;;
68579;SDS011;55555;52.136;5.424;2022-10-13T06:17:02;32.67;;;16.40;;
68579;SDS011;55555;52.136;5.424;2022-10-13T06:19:29;34.45;;;17.10;;
68579;SDS011;55555;52.136;5.424;2022-10-13T06:21:56;32.28;;;17.42;;
68579;SDS011;55555;52.136;5.424;2022-10-13T06:24:28;35.33;;;16.45;;
68579;SDS011;55555;52.136;5.424;2022-10-13T06:26:55;39.53;;;18.17;;
68579;SDS011;55555;52.136;5.424;2022-10-13T06:29:22;33.83;;;17.50;;
68579;SDS011;55555;52.136;5.424;2022-10-13T06:31:49;34.30;;;17.10;;
68579;SDS011;55555;52.136;5.424;2022-10-13T06:34:16;36.65;;;18.50;;
68579;SDS011;55555;52.136;5.424;2022-10-13T06:36:43;38.58;;;18.73;;
68579;SDS011;55555;52.136;5.424;2022-10-13T06:39:10;34.75;;;18.20;;
68579;SDS011;55555;52.136;5.424;2022-10-13T06:41:37;48.13;;;18.87;;
68579;SDS011;55555;52.136;5.424;2022-10-13T06:44:04;36.35;;;18.02;;
68579;SDS011;55555;52.136;5.424;2022-10-13T06:46:31;43.80;;;20.13;;
68579;SDS011;55555;52.136;5.424;2022-10-13T06:48:58;31.10;;;16.90;;
68579;SDS011;55555;52.136;5.424;2022-10-13T06:51:25;36.03;;;17.02;;
68579;SDS011;55555;52.136;5.424;2022-10-13T06:53:54;36.93;;;17.80;;
68579;SDS011;55555;52.136;5.424;2022-10-13T06:56:22;36.97;;;18.48;;
68579;SDS011;55555;52.136;5.424;2022-10-13T06:58:49;45.85;;;20.35;;
68579;SDS011;55555;52.136;5.424;2022-10-13T07:01:15;39.90;;;20.13;;
68579;SDS011;55555;52.136;5.424;2022-10-13T07:03:43;47.72;;;20.17;;
68579;SDS011;55555;52.136;5.424;2022-10-13T07:06:09;37.23;;;20.37;;
68579;SDS011;55555;52.136;5.424;2022-10-13T07:08:36;42.35;;;20.38;;
68579;SDS011;55555;52.136;5.424;2022-10-13T07:11:07;41.40;;;20.13;;
68579;SDS011;55555;52.136;5.424;2022-10-13T07:13:42;40.03;;;18.13;;
68579;SDS011;55555;52.136;5.424;2022-10-13T07:16:12;37.47;;;19.17;;
68579;SDS011;55555;52.136;5.424;2022-10-13T07:18:40;42.03;;;20.40;;
68579;SDS011;55555;52.136;5.424;2022-10-13T07:21:08;34.63;;;18.73;;
68579;SDS011;55555;52.136;5.424;2022-10-13T07:23:35;39.55;;;19.90;;
68579;SDS011;55555;52.136;5.424;2022-10-13T07:26:05;39.47;;;19.67;;
68579;SDS011;55555;52.136;5.424;2022-10-13T07:28:34;37.22;;;19.98;;
68579;SDS011;55555;52.136;5.424;2022-10-13T07:31:08;43.30;;;21.00;;
68579;SDS011;55555;52.136;5.424;2022-10-13T07:33:47;36.60;;;18.65;;
68579;SDS011;55555;52.136;5.424;2022-10-13T07:36:15;43.10;;;20.30;;
68579;SDS011;55555;52.136;5.424;2022-10-13T07:38:43;44.53;;;21.13;;
68579;SDS011;55555;52.136;5.424;2022-10-13T07:41:11;41.50;;;20.27;;
68579;SDS011;55555;52.136;5.424;2022-10-13T07:43:39;44.87;;;22.33;;
68579;SDS011;55555;52.136;5.424;2022-10-13T07:46:07;44.90;;;21.27;;
68579;SDS011;55555;52.136;5.424;2022-10-13T07:48:37;45.13;;;22.08;;
68579;SDS011;55555;52.136;5.424;2022-10-13T07:51:05;42.78;;;21.80;;
68579;SDS011;55555;52.136;5.424;2022-10-13T07:53:35;42.22;;;22.15;;
68579;SDS011;55555;52.136;5.424;2022-10-13T07:56:04;48.30;;;22.23;;
68579;SDS011;55555;52.136;5.424;2022-10-13T07:58:37;48.20;;;24.00;;
68579;SDS011;55555;52.136;5.424;2022-10-13T08:01:07;46.13;;;22.63;;
68579;SDS011;55555;52.136;5.424;2022-10-13T08:03:34;44.40;;;22.63;;
68579;SDS011;55555;52.136;5.424;2022-10-13T08:06:07;39.08;;;22.25;;
68579;SDS011;55555;52.136;5.424;2022-10-13T08:08:34;43.57;;;21.80;;
68579;SDS011;55555;52.136;5.424;2022-10-13T08:11:02;44.78;;;21.65;;
68579;SDS011;55555;52.136;5.424;2022-10-13T08:13:32;46.03;;;22.40;;
68579;SDS011;55555;52.136;5.424;2022-10-13T08:16:00;41.10;;;21.25;;
68579;SDS011;55555;52.136;5.424;2022-10-13T08:18:28;41.63;;;21.58;;
68579;SDS011;55555;52.136;5.424;2022-10-13T08:20:58;43.43;;;23.30;;
68579;SDS011;55555;52.136;5.424;2022-10-13T08:23:47;52.38;;;22.65;;
68579;SDS011;55555;52.136;5.424;2022-10-13T08:26:18;50.10;;;22.38;;
68579;SDS011;55555;52.136;5.424;2022-10-13T08:28:54;42.47;;;22.73;;
68579;SDS011;55555;52.136;5.424;2022-10-13T08:31:41;45.17;;;22.85;;
68579;SDS011;55555;52.136;5.424;2022-10-13T08:34:09;38.60;;;22.63;;
68579;SDS011;55555;52.136;5.424;2022-10-13T08:36:37;40.80;;;21.75;;
68579;SDS011;55555;52.136;5.424;2022-10-13T08:39:05;43.00;;;23.33;;
68579;SDS011;55555;52.136;5.424;2022-10-13T08:41:39;34.40;;;20.85;;
68579;SDS011;55555;52.136;5.424;2022-10-13T08:44:11;36.58;;;20.35;;
68579;SDS011;55555;52.136;5.424;2022-10-13T08:47:42;36.63;;;20.37;;
68579;SDS011;55555;52.136;5.424;2022-10-13T08:50:18;40.17;;;20.30;;
68579;SDS011;55555;52.136;5.424;2022-10-13T08:52:52;38.15;;;21.88;;
68579;SDS011;55555;52.136;5.424;2022-10-13T08:55:27;33.08;;;20.35;;
68579;SDS011;55555;52.136;5.424;2022-10-13T08:57:55;34.55;;;21.42;;
68579;SDS011;55555;52.136;5.424;2022-10-13T09:00:22;35.30;;;21.10;;
68579;SDS011;55555;52.136;5.424;2022-10-13T09:02:50;34.30;;;21.02;;
68579;SDS011;55555;52.136;5.424;2022-10-13T09:05:21;40.28;;;22.50;;
68579;SDS011;55555;52.136;5.424;2022-10-13T09:08:08;38.50;;;20.92;;
68579;SDS011;55555;52.136;5.424;2022-10-13T09:10:49;36.42;;;20.83;;
68579;SDS011;55555;52.136;5.424;2022-10-13T09:13:18;39.03;;;20.93;;
68579;SDS011;55555;52.136;5.424;2022-10-13T09:15:46;32.65;;;21.02;;
68579;SDS011;55555;52.136;5.424;2022-10-13T09:18:18;35.05;;;22.23;;
68579;SDS011;55555;52.136;5.424;2022-10-13T09:23:49;35.03;;;20.50;;
68579;SDS011;55555;52.136;5.424;2022-10-13T09:26:20;34.20;;;19.07;;
68579;SDS011;55555;52.136;5.424;2022-10-13T09:28:50;31.90;;;19.33;;
68579;SDS011;55555;52.136;5.424;2022-10-13T09:31:24;35.40;;;19.77;;
68579;SDS011;55555;52.136;5.424;2022-10-13T09:33:59;37.00;;;20.17;;
68579;SDS011;55555;52.136;5.424;2022-10-13T09:36:41;33.67;;;17.35;;
68579;SDS011;55555;52.136;5.424;2022-10-13T09:39:29;28.70;;;16.93;;
68579;SDS011;55555;52.136;5.424;2022-10-13T09:45:18;29.65;;;17.48;;
68579;SDS011;55555;52.136;5.424;2022-10-13T09:50:22;27.55;;;15.50;;
68579;SDS011;55555;52.136;5.424;2022-10-13T09:53:15;28.57;;;14.60;;
68579;SDS011;55555;52.136;5.424;2022-10-13T09:55:48;25.17;;;14.50;;
68579;SDS011;55555;52.136;5.424;2022-10-13T09:58:20;31.85;;;15.82;;
68579;SDS011;55555;52.136;5.424;2022-10-13T10:00:53;29.55;;;14.82;;
68579;SDS011;55555;52.136;5.424;2022-10-13T10:03:27;25.38;;;13.23;;
68579;SDS011;55555;52.136;5.424;2022-10-13T10:06:00;25.73;;;12.97;;
68579;SDS011;55555;52.136;5.424;2022-10-13T10:11:36;23.40;;;13.55;;
68579;SDS011;55555;52.136;5.424;2022-10-13T10:14:16;23.10;;;12.88;;
68579;SDS011;55555;52.136;5.424;2022-10-13T10:19:23;26.63;;;12.20;;
68579;SDS011;55555;52.136;5.424;2022-10-13T10:22:07;26.27;;;12.18;;
68579;SDS011;55555;52.136;5.424;2022-10-13T10:24:43;23.02;;;11.55;;
68579;SDS011;55555;52.136;5.424;2022-10-13T10:27:27;25.13;;;11.85;;
68579;SDS011;55555;52.136;5.424;2022-10-13T10:30:17;28.67;;;11.55;;
68579;SDS011;55555;52.136;5.424;2022-10-13T10:32:52;24.57;;;11.23;;
68579;SDS011;55555;52.136;5.424;2022-10-13T10:43:43;24.25;;;11.90;;
68579;SDS011;55555;52.136;5.424;2022-10-13T10:51:58;23.90;;;10.38;;
68579;SDS011;55555;52.136;5.424;2022-10-13T11:00:05;19.17;;;9.23;;
68579;SDS011;55555;52.136;5.424;2022-10-13T11:08:31;20.35;;;10.13;;
68579;SDS011;55555;52.136;5.424;2022-10-13T11:11:40;20.75;;;10.50;;
68579;SDS011;55555;52.136;5.424;2022-10-13T11:16:34;20.15;;;9.85;;
68579;SDS011;55555;52.136;5.424;2022-10-13T11:24:42;22.05;;;11.55;;
68579;SDS011;55555;52.136;5.424;2022-10-13T11:32:57;27.23;;;13.50;;
68579;SDS011;55555;52.136;5.424;2022-10-13T11:43:52;29.48;;;16.05;;
68579;SDS011;55555;52.136;5.424;2022-10-13T11:49:36;32.25;;;17.52;;
68579;SDS011;55555;52.136;5.424;2022-10-13T11:55:11;29.93;;;18.53;;
68579;SDS011;55555;52.136;5.424;2022-10-13T11:57:43;34.38;;;19.73;;
68579;SDS011;55555;52.136;5.424;2022-10-13T12:00:15;33.17;;;19.17;;
68579;SDS011;55555;52.136;5.424;2022-10-13T12:02:48;34.13;;;18.70;;
68579;SDS011;55555;52.136;5.424;2022-10-13T12:05:19;35.38;;;18.05;;
68579;SDS011;55555;52.136;5.424;2022-10-13T12:07:54;34.60;;;18.70;;
68579;SDS011;55555;52.136;5.424;2022-10-13T12:10:31;34.53;;;18.85;;
68579;SDS011;55555;52.136;5.424;2022-10-13T12:13:01;30.55;;;17.23;;
68579;SDS011;55555;52.136;5.424;2022-10-13T12:15:37;29.85;;;17.10;;
68579;SDS011;55555;52.136;5.424;2022-10-13T12:18:22;35.17;;;17.67;;
68579;SDS011;55555;52.136;5.424;2022-10-13T12:20:54;30.67;;;16.07;;
68579;SDS011;55555;52.136;5.424;2022-10-13T12:23:24;27.98;;;15.65;;
68579;SDS011;55555;52.136;5.424;2022-10-13T12:25:52;24.63;;;15.05;;
68579;SDS011;55555;52.136;5.424;2022-10-13T12:28:28;26.02;;;13.98;;
68579;SDS011;55555;52.136;5.424;2022-10-13T12:33:56;25.67;;;13.90;;
68579;SDS011;55555;52.136;5.424;2022-10-13T12:36:26;29.52;;;14.45;;
68579;SDS011;55555;52.136;5.424;2022-10-13T12:39:00;26.63;;;15.50;;
68579;SDS011;55555;52.136;5.424;2022-10-13T12:41:37;29.50;;;15.45;;
68579;SDS011;55555;52.136;5.424;2022-10-13T12:44:12;27.55;;;15.10;;
68579;SDS011;55555;52.136;5.424;2022-10-13T12:46:49;33.20;;;16.50;;
68579;SDS011;55555;52.136;5.424;2022-10-13T12:49:28;29.88;;;15.82;;
68579;SDS011;55555;52.136;5.424;2022-10-13T12:52:04;29.70;;;16.92;;
68579;SDS011;55555;52.136;5.424;2022-10-13T12:54:35;30.13;;;14.52;;
68579;SDS011;55555;52.136;5.424;2022-10-13T12:57:20;26.55;;;15.35;;
68579;SDS011;55555;52.136;5.424;2022-10-13T13:00:02;26.97;;;14.60;;
68579;SDS011;55555;52.136;5.424;2022-10-13T13:02:54;30.00;;;14.88;;
68579;SDS011;55555;52.136;5.424;2022-10-13T13:05:34;27.40;;;14.48;;
68579;SDS011;55555;52.136;5.424;2022-10-13T13:10:54;24.55;;;13.68;;
68579;SDS011;55555;52.136;5.424;2022-10-13T13:13:22;25.67;;;13.87;;
68579;SDS011;55555;52.136;5.424;2022-10-13T13:15:50;25.17;;;13.73;;
68579;SDS011;55555;52.136;5.424;2022-10-13T13:21:03;28.67;;;14.65;;
68579;SDS011;55555;52.136;5.424;2022-10-13T13:23:32;26.83;;;14.73;;
68579;SDS011;55555;52.136;5.424;2022-10-13T13:26:10;29.30;;;13.83;;
68579;SDS011;55555;52.136;5.424;2022-10-13T13:31:13;30.27;;;15.27;;
68579;SDS011;55555;52.136;5.424;2022-10-13T13:33:42;27.88;;;15.50;;
68579;SDS011;55555;52.136;5.424;2022-10-13T13:36:16;31.17;;;15.90;;
68579;SDS011;55555;52.136;5.424;2022-10-13T13:38:45;23.13;;;14.60;;
68579;SDS011;55555;52.136;5.424;2022-10-13T13:41:12;32.08;;;15.98;;
68579;SDS011;55555;52.136;5.424;2022-10-13T13:43:39;30.23;;;16.35;;
68579;SDS011;55555;52.136;5.424;2022-10-13T13:46:17;36.65;;;16.55;;
68579;SDS011;55555;52.136;5.424;2022-10-13T13:48:47;31.30;;;15.68;;
68579;SDS011;55555;52.136;5.424;2022-10-13T13:51:14;30.40;;;16.30;;
68579;SDS011;55555;52.136;5.424;2022-10-13T13:53:42;30.80;;;16.95;;
68579;SDS011;55555;52.136;5.424;2022-10-13T13:56:13;31.67;;;16.90;;
68579;SDS011;55555;52.136;5.424;2022-10-13T13:58:42;28.98;;;15.63;;
68579;SDS011;55555;52.136;5.424;2022-10-13T14:01:10;32.70;;;17.27;;
68579;SDS011;55555;52.136;5.424;2022-10-13T14:03:39;31.70;;;17.57;;
68579;SDS011;55555;52.136;5.424;2022-10-13T14:06:06;29.25;;;17.15;;
68579;SDS011;55555;52.136;5.424;2022-10-13T14:08:34;30.20;;;17.52;;
68579;SDS011;55555;52.136;5.424;2022-10-13T14:11:08;28.60;;;17.00;;
68579;SDS011;55555;52.136;5.424;2022-10-13T14:13:35;32.28;;;17.50;;
68579;SDS011;55555;52.136;5.424;2022-10-13T14:16:02;27.97;;;16.07;;
68579;SDS011;55555;52.136;5.424;2022-10-13T14:18:30;28.67;;;16.15;;
68579;SDS011;55555;52.136;5.424;2022-10-13T14:20:57;26.75;;;16.65;;
68579;SDS011;55555;52.136;5.424;2022-10-13T14:23:24;29.08;;;15.90;;
68579;SDS011;55555;52.136;5.424;2022-10-13T14:25:51;27.20;;;16.27;;
68579;SDS011;55555;52.136;5.424;2022-10-13T14:28:18;27.33;;;15.87;;
68579;SDS011;55555;52.136;5.424;2022-10-13T14:30:44;28.70;;;17.42;;
68579;SDS011;55555;52.136;5.424;2022-10-13T14:33:11;31.23;;;16.67;;
68579;SDS011;55555;52.136;5.424;2022-10-13T14:35:38;24.05;;;15.63;;
68579;SDS011;55555;52.136;5.424;2022-10-13T14:38:05;29.77;;;16.33;;
68579;SDS011;55555;52.136;5.424;2022-10-13T14:40:32;27.57;;;14.97;;
68579;SDS011;55555;52.136;5.424;2022-10-13T14:42:59;27.98;;;16.38;;
68579;SDS011;55555;52.136;5.424;2022-10-13T14:45:26;30.50;;;16.27;;
68579;SDS011;55555;52.136;5.424;2022-10-13T14:47:53;25.70;;;15.30;;
68579;SDS011;55555;52.136;5.424;2022-10-13T14:50:19;28.48;;;16.70;;
68579;SDS011;55555;52.136;5.424;2022-10-13T14:52:46;28.77;;;15.60;;
68579;SDS011;55555;52.136;5.424;2022-10-13T14:55:13;28.25;;;16.40;;
68579;SDS011;55555;52.136;5.424;2022-10-13T14:57:40;27.45;;;15.52;;
68579;SDS011;55555;52.136;5.424;2022-10-13T15:00:07;27.35;;;15.75;;
68579;SDS011;55555;52.136;5.424;2022-10-13T15:02:35;26.25;;;15.85;;
68579;SDS011;55555;52.136;5.424;2022-10-13T15:05:02;27.90;;;15.00;;
68579;SDS011;55555;52.136;5.424;2022-10-13T15:07:30;30.42;;;16.10;;
68579;SDS011;55555;52.136;5.424;2022-10-13T15:09:57;28.27;;;15.50;;
68579;SDS011;55555;52.136;5.424;2022-10-13T15:12:32;25.55;;;14.43;;
68579;SDS011;55555;52.136;5.424;2022-10-13T15:14:59;28.38;;;15.98;;
68579;SDS011;55555;52.136;5.424;2022-10-13T15:17:26;27.67;;;16.53;;
68579;SDS011;55555;52.136;5.424;2022-10-13T15:19:54;24.75;;;14.98;;
68579;SDS011;55555;52.136;5.424;2022-10-13T15:22:21;26.95;;;16.08;;
68579;SDS011;55555;52.136;5.424;2022-10-13T15:24:49;23.15;;;15.10;;
68579;SDS011;55555;52.136;5.424;2022-10-13T15:27:16;25.92;;;14.60;;
68579;SDS011;55555;52.136;5.424;2022-10-13T15:29:43;27.43;;;15.63;;
68579;SDS011;55555;52.136;5.424;2022-10-13T15:32:11;28.20;;;16.05;;
68579;SDS011;55555;52.136;5.424;2022-10-13T15:34:43;27.42;;;16.33;;
68579;SDS011;55555;52.136;5.424;2022-10-13T15:37:11;27.75;;;16.13;;
68579;SDS011;55555;52.136;5.424;2022-10-13T15:39:38;24.75;;;15.38;;
68579;SDS011;55555;52.136;5.424;2022-10-13T15:42:05;24.77;;;15.63;;
68579;SDS011;55555;52.136;5.424;2022-10-13T15:44:32;25.45;;;15.35;;
68579;SDS011;55555;52.136;5.424;2022-10-13T15:47:19;28.23;;;15.55;;
68579;SDS011;55555;52.136;5.424;2022-10-13T15:49:46;25.85;;;16.17;;
68579;SDS011;55555;52.136;5.424;2022-10-13T15:52:13;28.45;;;15.82;;
68579;SDS011;55555;52.136;5.424;2022-10-13T15:54:40;31.00;;;15.67;;
68579;SDS011;55555;52.136;5.424;2022-10-13T15:57:07;26.52;;;15.10;;
68579;SDS011;55555;52.136;5.424;2022-10-13T15:59:34;28.73;;;16.45;;
68579;SDS011;55555;52.136;5.424;2022-10-13T16:02:00;24.88;;;16.15;;
68579;SDS011;55555;52.136;5.424;2022-10-13T16:04:27;28.00;;;16.38;;
68579;SDS011;55555;52.136;5.424;2022-10-13T16:07:01;29.40;;;16.73;;
68579;SDS011;55555;52.136;5.424;2022-10-13T16:09:28;30.95;;;17.33;;
68579;SDS011;55555;52.136;5.424;2022-10-13T16:11:57;27.75;;;16.15;;
68579;SDS011;55555;52.136;5.424;2022-10-13T16:14:24;29.15;;;16.58;;
68579;SDS011;55555;52.136;5.424;2022-10-13T16:16:50;29.92;;;17.30;;
68579;SDS011;55555;52.136;5.424;2022-10-13T16:19:17;30.00;;;16.50;;
68579;SDS011;55555;52.136;5.424;2022-10-13T16:21:44;31.02;;;17.42;;